Bokoshe, OK (74930)

5:29 PM CDT on September 01, 2014 (GMT -0500)
LCEM - LeFlore County EOC | Change Station
CLOSE
Current Station
Personal Weather Station
Location: Poteau, OK
Elevation: 509 ft
Nearby Weather Stations

Elev 509 ft 35.05 °N, 94.63 °W | Updated 5 seconds ago

Clear
Clear
75.3 °F
Feels Like 74 °F
N
1.0
Wind Variable Wind from SE
Gusts 2.0 mph

Today
High -- | Low -- °F
--% Chance of Precip.
Yesterday
High -- | Low -- °F
Precip. -- in
6:51 AM 7:45 PM
Waxing Crescent, 44% visible
Pressure 29.85 in
Visibility 10.0 miles
Clouds Few 5000 ft
Heat Index 74 °F
Dew Point 72 °F
Humidity 91%
Rainfall 0.00 in
Snow Depth Not available.
UV 3 out of 12
Pollen 10.90 out of 12
Air Quality Not available.
Flu Activity Not available.
METAR KGZL 012215Z AUTO 18015G22KT 10SM FEW050 33/17 A2985 RMK AO2

More Conditions Fewer Conditions

Pressure 29.85 in
Visibility 10.0 miles
Clouds Few 5000 ft
Heat Index 74 °F
Dew Point 72 °F
Humidity 91%
Rainfall 0.00 in
Snow Depth Not available.
UV 3 out of 12
Pollen 10.90 out of 12
Air Quality Not available.
Flu Activity Not available.
METAR KGZL 012215Z AUTO 18015G22KT 10SM FEW050 33/17 A2985 RMK AO2

More Conditions Fewer Conditions

10-Day Weather Forecast

Almanac

Astronomy

Sep. 01, 2014 Rise Set
Actual Time 6:51 AM CDT 7:45 PM CDT
Civil Twilight 6:25 AM CDT 8:11 PM CDT
Nautical Twilight 5:55 AM CDT 8:42 PM CDT
Astronomical Twilight 5:23 AM CDT 9:13 PM CDT
Moon 1:23 PM CDT No Moon Set
Length of Visible Light 13h 45m
Length of Day
12h 54m
Tomorrow will be 2m 6s shorter.
Waxing Crescent, 44% of the Moon is Illuminated
Today
Waxing Crescent
Sep 2
First Quarter
Sep 8
Full
Sep 15
Last Quarter
Sep 24
New

Today's Extremes

State Highs State Lows

Community

WunderPhotos

Upload Photos

1,749,423 photos uploaded!

Nearby

Snow Depth

Station Depth Elevation
No new snow has been reported.

Earthquake Activity

City Distance Mag. Time & Date
No recent earthquake activity has been reported nearby.
Minimum magnitude displayed is 2.5.

Coastal Water Temperatures

Place Temperature
No Stations Reporting

Nearby Weather Stations